• Join FlightAware (Why Join?)
  • Login
  • US Flag 
12:16PM EST


 

Airport Tracker/Info


-or-


 

Live Flight TrackerFlight Track Log ✈ AAY956 ✈ 05-Mar-2014 ✈ KPGD - KIAG

Flight Track Log - Related Links

Times and Time Zones

All times are in EST time to prevent confusion due to time zone crossing. See the AAY956 flight status page for this flight to view local times or setup timezone preferences in your user account.

Time Position Orientation Groundspeed Altitude Reporting Facility
EST Latitude Longitude Course Direction KTS MPH feet Rate Location/Type
08:34AM 27.1394 -81.9656 19° North 325 374 4,800  Level Miami Center
08:35AM 27.2164 -81.9711 356° North 295 339 7,800 2,760 Climbing Miami Center
08:36AM 27.2956 -81.9747 358° North 287 330 10,400 1,860 Climbing Miami Center
08:37AM 27.3894 -81.9789 358° North 301 346 11,600 1,560 Climbing Miami Center
08:38AM 26.9664 -81.9730 19° North  Level FlightAware Approximate
08:38AM 27.4933 -81.9858 357° North 340 391 13,600  Level Miami Center
08:39AM 27.6061 -81.9886 359° North 389 448 15,900 2,040 Climbing Miami Center
08:40AM 27.7225 -82.0008 355° North 414 476 17,700 1,680 Climbing Miami Center
08:41AM 27.8308 -82.0056 358° North 422 486 19,300 1,560 Climbing Miami Center
08:43AM 28.0933 -82.1186 339° North 422 486 22,900 1,500 Climbing Jacksonville Center
08:44AM 28.1981 -82.1978 326° Northwest 431 496 24,300 1,440 Climbing Jacksonville Center
08:45AM 28.2925 -82.2892 320° Northwest 442 509 25,800 1,500 Climbing Jacksonville Center
08:46AM 28.3908 -82.3733 323° Northwest 442 509 27,400 1,380 Climbing Jacksonville Center
08:47AM 28.4872 -82.4650 320° Northwest 447 514 28,600 1,200 Climbing Jacksonville Center
08:48AM 28.5836 -82.5497 322° Northwest 447 514 29,900 660 Climbing Jacksonville Center
08:49AM 28.6797 -82.6369 321° Northwest 447 514 30,000  Climbing Jacksonville Center
08:50AM 28.8069 -82.6392 359° North 427 491 29,900  Descending Jacksonville Center
08:51AM 28.9428 -82.6339 North 451 519 30,000  Climbing Jacksonville Center
08:52AM 29.0764 -82.6264 North 465 535 30,000  Level Jacksonville Center
08:53AM 29.2119 -82.6189 North 479 551 30,000  Level Jacksonville Center
08:54AM 29.3475 -82.6114 North 479 551 30,000  Level Jacksonville Center
08:55AM 29.4811 -82.6014 North 479 551 30,000 300 Level Jacksonville Center
08:56AM 29.6189 -82.5986 North 479 551 30,700 720 Climbing Jacksonville Center
08:57AM 29.7589 -82.5886 North 479 551 31,500 840 Climbing Jacksonville Center
08:58AM 29.8944 -82.5836 North 479 551 32,400 720 Climbing Jacksonville Center
08:59AM 30.0303 -82.5758 North 484 557 33,000 300 Climbing Jacksonville Center
09:00AM 30.1700 -82.5753 360° North 484 557 33,000  Level Jacksonville Center
09:01AM 30.3058 -82.5631 North 484 557 33,000  Level Jacksonville Center
09:02AM 30.4436 -82.5600 North 484 557 33,000  Level Jacksonville Center
09:03AM 30.5792 -82.5500 North 484 557 33,000  Level Jacksonville Center
09:04AM 30.7169 -82.5494 360° North 484 557 33,000  Level Jacksonville Center
09:05AM 30.8547 -82.5392 North 484 557 33,000  Level Jacksonville Center
09:06AM 30.9864 -82.5339 North 484 557 33,000  Level Jacksonville Center
09:07AM 31.1219 -82.5286 North 479 551 33,000  Level Jacksonville Center
09:08AM 31.2597 -82.5231 North 479 551 33,000  Level Jacksonville Center
09:09AM 31.3933 -82.5178 North 479 551 33,000  Level Jacksonville Center
09:11AM 31.7181 -82.4789 North 497 572 33,000  Level Atlanta Center
09:12AM 31.8556 -82.4617 North 497 572 33,000  Level Atlanta Center
09:13AM 31.9928 -82.4350 North 497 572 33,000  Level Atlanta Center
09:14AM 32.1325 -82.4200 North 502 578 33,000  Level Atlanta Center
09:15AM 32.2844 -82.3853 11° North 502 578 33,000  Level Atlanta Center
09:16AM 32.4200 -82.3681 North 502 578 33,000  Level Atlanta Center
09:17AM 32.5594 -82.3458 North 502 578 33,000  Level Atlanta Center
09:18AM 32.7008 -82.3133 11° North 502 578 33,000  Level Atlanta Center
09:19AM 32.8383 -82.2883 North 502 578 33,000  Level Atlanta Center
09:20AM 32.9775 -82.2511 13° North 502 578 33,000  Level Atlanta Center
09:21AM 33.1192 -82.2183 11° North 508 585 33,000  Level Atlanta Center
09:22AM 33.2564 -82.1831 12° North 508 585 33,000  Level Atlanta Center
09:23AM 33.3997 -82.1503 11° North 508 585 33,000  Level Atlanta Center
09:24AM 33.5414 -82.1172 11° North 508 585 33,000  Level Atlanta Center
09:25AM 33.6681 -82.0869 11° North 508 585 33,000  Level Atlanta Center
09:26AM 33.8117 -82.0536 11° North 508 585 33,000  Level Atlanta Center
09:27AM 33.9489 -82.0178 12° North 508 585 33,000  Level Atlanta Center
09:28AM 34.0922 -81.9894 North 508 585 33,000  Level Atlanta Center
09:29AM 34.2336 -81.9508 13° North 513 590 33,000  Level Atlanta Center
09:30AM 34.3750 -81.9222 North 518 596 33,000  Level Atlanta Center
09:31AM 34.5161 -81.8833 13° North 518 596 33,000  Level Atlanta Center
09:32AM 34.6700 -81.8517 10° North 518 596 33,000  Level Atlanta Center
09:33AM 34.8072 -81.8150 12° North 513 590 33,000  Level Atlanta Center
09:34AM 34.9464 -81.7861 10° North 506 582 33,000  Level Atlanta Center
09:35AM 35.0856 -81.7442 14° North 506 582 33,000  Level Atlanta Center
09:36AM 35.2247 -81.7175 North 506 582 33,000  Level Atlanta Center
09:37AM 35.3658 -81.6778 13° North 506 582 33,000  Level Atlanta Center
09:38AM 35.5072 -81.6483 10° North 506 582 33,000  Level Atlanta Center
09:39AM 35.6339 -81.6139 12° North 506 582 33,000  Level Atlanta Center
09:40AM 35.7769 -81.5764 12° North 506 582 33,000  Level Atlanta Center
09:41AM 35.9181 -81.5414 11° North 511 588 33,000  Level Atlanta Center
09:42AM 36.0572 -81.5036 12° North 511 588 33,000  Level Atlanta Center
09:43AM 36.2003 -81.4708 10° North 511 588 33,000  Level Atlanta Center
09:44AM 36.3392 -81.4303 13° North 511 588 33,000  Level Atlanta Center
09:45AM 36.4803 -81.4000 10° North 511 588 33,000  Level Atlanta Center
09:46AM 36.6214 -81.3592 13° North 511 588 33,000  Level Atlanta Center
09:48AM 36.8986 -81.2844 12° North 518 596 33,000  Level Indianapolis Center
09:49AM 37.0392 -81.2550 North 511 588 33,000  Level Indianapolis Center
09:50AM 37.1797 -81.2131 13° North 514 592 33,000  Level Indianapolis Center
09:51AM 37.3369 -81.1764 11° North 514 592 33,000  Level Indianapolis Center
09:52AM 37.4756 -81.1336 14° North 519 597 33,000  Level Indianapolis Center
09:53AM 37.6178 -81.1050 North 523 602 33,000 420 Level Indianapolis Center
09:54AM 37.7525 -81.0625 14° North 516 594 33,900 600 Climbing Indianapolis Center
09:55AM 37.8986 -81.0303 10° North 510 587 34,300 480 Climbing Indianapolis Center
09:56AM 38.0336 -80.9894 13° North 505 581 35,000 300 Climbing Indianapolis Center
09:57AM 38.1936 -80.9511 11° North 494 568 35,000  Level Indianapolis Center
09:59AM 38.3244 -80.9106 14° North 490 564 35,000  Level Indianapolis Center
10:00AM 38.4567 -80.8783 11° North 490 564 35,000  Level Indianapolis Center
10:01AM 38.5883 -80.8378 14° North 490 564 35,000  Level Indianapolis Center
10:02AM 38.7194 -80.8053 11° North 487 560 35,000  Level Indianapolis Center
10:03AM 38.8781 -80.7594 13° North 486 559 35,000  Level Indianapolis Center
10:04AM 39.0078 -80.7264 11° North 483 556 35,000  Level Indianapolis Center
10:05AM 39.1383 -80.6833 14° North 484 557 35,000  Level Indianapolis Center
10:06AM 39.2653 -80.6297 18° North 484 557 35,000  Level Indianapolis Center
10:07AM 39.3933 -80.5828 16° North 481 554 35,000  Level Indianapolis Center
10:08AM 39.5231 -80.5297 18° North 487 560 35,000  Level Indianapolis Center
10:09AM 39.6742 -80.4681 17° North 476 548 35,000  Level Indianapolis Center
10:09AM 39.7247 -80.4431 21° North 479 551 35,000 -1,260 Level Cleveland Center
10:10AM 39.8764 -80.3889 15° North 476 548 33,000 -1,500 Descending Cleveland Center
10:12AM 40.0014 -80.3281 20° North 477 549 32,000 -840 Descending Cleveland Center
10:13AM 40.1244 -80.2803 17° North 466 536 31,300 -540 Descending Cleveland Center
10:14AM 40.2411 -80.2256 20° North 450 518 31,000 -180 Descending Cleveland Center
10:15AM 40.3647 -80.1756 17° North 446 513 31,000  Level Cleveland Center
10:16AM 40.4883 -80.1206 19° North 444 511 31,000  Level Cleveland Center
10:17AM 40.6006 -80.0750 17° North 437 503 31,000  Level Cleveland Center
10:18AM 40.7164 -80.0233 19° North 434 499 31,000 -420 Level Cleveland Center
10:19AM 40.8342 -79.9711 19° North 433 498 30,200 -900 Descending Cleveland Center
10:20AM 40.9508 -79.9250 17° North 435 501 29,200 -1,440 Descending Cleveland Center
10:21AM 41.0678 -79.8692 20° North 444 511 27,300 -2,040 Descending Cleveland Center
10:22AM 41.2122 -79.8058 18° North 454 522 25,000 -1,620 Descending Cleveland Center
10:23AM 41.3361 -79.7556 17° North 463 533 24,000 -540 Descending Cleveland Center
10:24AM 41.4606 -79.6975 19° North 476 548 24,000  Level Cleveland Center
10:25AM 41.5853 -79.6428 18° North 474 545 24,000 -360 Level Cleveland Center
10:26AM 41.7086 -79.5903 18° North 468 539 23,300 -840 Descending Cleveland Center
10:27AM 41.8275 -79.5319 20° North 457 526 22,300 -1,560 Descending Cleveland Center
10:28AM 41.9617 -79.4736 18° North 433 498 20,100 -2,040 Descending Cleveland Center
10:29AM 42.0758 -79.4219 19° North 414 476 18,100 -1,500 Descending Cleveland Center
10:30AM 42.1789 -79.3744 19° North 410 472 17,100 -1,320 Descending Cleveland Center
10:31AM 42.2878 -79.3258 18° North 395 455 15,500 -1,560 Descending Cleveland Center
10:32AM 42.3925 -79.2778 19° North 382 440 13,900 -1,440 Descending Cleveland Center
10:33AM 42.4794 -79.2292 22° Northeast 385 443 12,600 -1,260 Descending Cleveland Center
10:34AM 42.5858 -79.1781 19° North 342 394 11,300 -1,200 Descending Cleveland Center
10:35AM 42.6628 -79.1378 21° North 304 350 10,200 -1,260 Descending Cleveland Center
10:36AM 42.7356 -79.1031 19° North 278 320 8,800 -1,380 Descending Cleveland Center
10:37AM 42.8086 -79.0683 19° North 271 312 7,400 -900 Descending Cleveland Center
10:38AM 42.8731 -79.0164 31° Northeast 267 307 7,000 -660 Descending Cleveland Center
10:39AM 42.9297 -78.9419 44° Northeast 268 308 6,100 -1,140 Descending Cleveland Center
10:40AM 42.9847 -78.8736 42° Northeast 260 299 4,700 -1,260 Descending Cleveland Center
10:41AM 43.0367 -78.8067 43° Northeast 250 288 3,600 -1,200 Descending Cleveland Center
10:42AM 43.0797 -78.7400 49° Northeast 249 287 2,300 -600 Descending Cleveland Center
10:43AM 43.1083 -78.7833 312° West 170 196 2,400 -300 Climbing Cleveland Center
10:44AM 43.1092 -78.8417 271° West 148 170 1,800 -420 Descending Cleveland Center
10:45AM 43.1097 -78.8861 271° West 145 167 1,600 -240 Descending Cleveland Center